Main page


Airports :

Kuwait City, Kuwait

Kuwait International Airport

latitude: 29-13N, longitude: 047-59E, elevation: 55 m

Current weather observation

The report was made 25 minutes ago, at 23:00 UTC
Wind 12 kt from the North/Northwest
Temperature 23°C
Humidity 27%
Pressure 1014 hPa
Visibility 10 km or more
no clouds below 1500 m and no cumulonimbus

METAR: OKBK 222300Z 34012KT CAVOK 23/03 Q1014 NOSIG

Time: 02:25 (23:25 UTC)


The report was made 6 hours and 40 minutes ago, at 16:45 UTC
Forecast valid from 22 at 18 UTC to 23 at 24 UTC
Wind 8 kt from the North/Northwest with gusts up to 18 kt
Visibility: 6000 m
Clear sky

TAF: OKBK 221645Z 2218/2324 34008G18KT 6000 SKC

Weather observations and forecasts of more than 4000 airports (METAR and TAF reports).

The available stations are represented by yellow and red dots on the map.

Hover mouse over dot to see the name of the station.

Then click to see weather observations and forecasts.

To change the map : click on the green buttons with a black cross to zoom in, on the green button with a dash to zoom out, or on the green arrows for adjacent maps.